Athens, Georgia
Current Conditions -  °F | °C
As of 4:51 AM on Thursday 23 Oct 2014 (Local Time) from KAHN Reporting Station
Clear Clear  
Wind Chill: 41°   Ceiling: Unl
Heat Index: 41°   Visibility: 10mi
Dew Point: 38°   Wind: 0mph
Humidity: 89%   Direction: NA
Pressure: 30.1"   Gusts: NA
Location:  33.96°N, 83.37°W
Report Text: KAHN 230851Z AUTO 00000KT 10SM CLR 05/03 A3010 RMK AO2 SLP192 T00500033 55001 TSNO
Loading
Personal Weather Stations






























Interactive Weather Map New forecast layout! Learn more

10-Day Weather Forecast

Advertisements
Track Severe Weather on mobile